sensor_id;sensor_type;location;lat;lon;timestamp;P1;durP1;ratioP1;P2;durP2;ratioP2
12177;SDS011;6152;48.728;9.256;2022-07-09T00:01:47;7.15;;;2.33;;
12177;SDS011;6152;48.728;9.256;2022-07-09T00:04:13;2.10;;;1.65;;
12177;SDS011;6152;48.728;9.256;2022-07-09T00:06:39;3.75;;;1.73;;
12177;SDS011;6152;48.728;9.256;2022-07-09T00:09:05;3.67;;;2.10;;
12177;SDS011;6152;48.728;9.256;2022-07-09T00:11:32;3.25;;;1.83;;
12177;SDS011;6152;48.728;9.256;2022-07-09T00:13:58;4.10;;;2.00;;
12177;SDS011;6152;48.728;9.256;2022-07-09T00:16:24;3.65;;;2.17;;
12177;SDS011;6152;48.728;9.256;2022-07-09T00:18:50;4.82;;;2.47;;
12177;SDS011;6152;48.728;9.256;2022-07-09T00:21:16;3.50;;;2.55;;
12177;SDS011;6152;48.728;9.256;2022-07-09T00:23:42;10.50;;;2.45;;
12177;SDS011;6152;48.728;9.256;2022-07-09T00:26:08;4.70;;;2.17;;
12177;SDS011;6152;48.728;9.256;2022-07-09T00:28:34;3.47;;;2.28;;
12177;SDS011;6152;48.728;9.256;2022-07-09T00:31:00;2.92;;;2.30;;
12177;SDS011;6152;48.728;9.256;2022-07-09T00:33:26;5.78;;;2.65;;
12177;SDS011;6152;48.728;9.256;2022-07-09T00:35:52;2.63;;;2.30;;
12177;SDS011;6152;48.728;9.256;2022-07-09T00:38:19;3.20;;;2.40;;
12177;SDS011;6152;48.728;9.256;2022-07-09T00:40:45;2.05;;;1.85;;
12177;SDS011;6152;48.728;9.256;2022-07-09T00:45:44;5.03;;;2.60;;
12177;SDS011;6152;48.728;9.256;2022-07-09T00:48:10;6.13;;;2.40;;
12177;SDS011;6152;48.728;9.256;2022-07-09T00:50:37;3.03;;;2.30;;
12177;SDS011;6152;48.728;9.256;2022-07-09T00:53:09;3.90;;;3.00;;
12177;SDS011;6152;48.728;9.256;2022-07-09T00:55:38;3.28;;;2.97;;
12177;SDS011;6152;48.728;9.256;2022-07-09T00:58:05;3.22;;;2.58;;
12177;SDS011;6152;48.728;9.256;2022-07-09T01:00:33;5.13;;;2.63;;
12177;SDS011;6152;48.728;9.256;2022-07-09T01:02:59;4.60;;;3.15;;
12177;SDS011;6152;48.728;9.256;2022-07-09T01:05:25;5.10;;;3.05;;
12177;SDS011;6152;48.728;9.256;2022-07-09T01:07:52;4.45;;;2.72;;
12177;SDS011;6152;48.728;9.256;2022-07-09T01:10:18;3.45;;;2.47;;
12177;SDS011;6152;48.728;9.256;2022-07-09T01:12:44;3.70;;;2.60;;
12177;SDS011;6152;48.728;9.256;2022-07-09T01:15:10;4.38;;;2.70;;
12177;SDS011;6152;48.728;9.256;2022-07-09T01:17:40;4.93;;;2.70;;
12177;SDS011;6152;48.728;9.256;2022-07-09T01:20:07;4.90;;;3.17;;
12177;SDS011;6152;48.728;9.256;2022-07-09T01:22:34;5.57;;;3.00;;
12177;SDS011;6152;48.728;9.256;2022-07-09T01:25:04;3.22;;;2.92;;
12177;SDS011;6152;48.728;9.256;2022-07-09T01:27:34;4.03;;;2.92;;
12177;SDS011;6152;48.728;9.256;2022-07-09T01:30:02;5.90;;;3.15;;
12177;SDS011;6152;48.728;9.256;2022-07-09T01:32:29;3.75;;;2.70;;
12177;SDS011;6152;48.728;9.256;2022-07-09T01:34:56;3.97;;;2.70;;
12177;SDS011;6152;48.728;9.256;2022-07-09T01:37:22;3.65;;;2.60;;
12177;SDS011;6152;48.728;9.256;2022-07-09T01:39:48;3.75;;;2.97;;
12177;SDS011;6152;48.728;9.256;2022-07-09T01:42:18;4.50;;;2.90;;
12177;SDS011;6152;48.728;9.256;2022-07-09T01:44:45;3.13;;;2.83;;
12177;SDS011;6152;48.728;9.256;2022-07-09T01:47:11;5.97;;;3.45;;
12177;SDS011;6152;48.728;9.256;2022-07-09T01:49:40;4.00;;;2.88;;
12177;SDS011;6152;48.728;9.256;2022-07-09T01:52:06;2.90;;;2.53;;
12177;SDS011;6152;48.728;9.256;2022-07-09T01:54:33;9.02;;;3.35;;
12177;SDS011;6152;48.728;9.256;2022-07-09T01:56:59;4.88;;;2.95;;
12177;SDS011;6152;48.728;9.256;2022-07-09T01:59:25;5.35;;;2.95;;
12177;SDS011;6152;48.728;9.256;2022-07-09T02:01:51;2.72;;;2.53;;
12177;SDS011;6152;48.728;9.256;2022-07-09T02:04:17;5.47;;;3.30;;
12177;SDS011;6152;48.728;9.256;2022-07-09T02:06:43;3.33;;;2.40;;
12177;SDS011;6152;48.728;9.256;2022-07-09T02:09:09;3.03;;;2.80;;
12177;SDS011;6152;48.728;9.256;2022-07-09T02:11:35;3.50;;;2.63;;
12177;SDS011;6152;48.728;9.256;2022-07-09T02:14:02;5.70;;;3.50;;
12177;SDS011;6152;48.728;9.256;2022-07-09T02:16:29;3.83;;;3.13;;
12177;SDS011;6152;48.728;9.256;2022-07-09T02:18:55;7.40;;;3.35;;
12177;SDS011;6152;48.728;9.256;2022-07-09T02:21:21;5.78;;;2.88;;
12177;SDS011;6152;48.728;9.256;2022-07-09T02:23:47;4.90;;;3.25;;
12177;SDS011;6152;48.728;9.256;2022-07-09T02:26:14;5.18;;;3.05;;
12177;SDS011;6152;48.728;9.256;2022-07-09T02:28:40;4.72;;;3.03;;
12177;SDS011;6152;48.728;9.256;2022-07-09T02:31:07;5.25;;;2.90;;
12177;SDS011;6152;48.728;9.256;2022-07-09T02:33:33;4.60;;;3.03;;
12177;SDS011;6152;48.728;9.256;2022-07-09T02:35:59;4.50;;;3.10;;
12177;SDS011;6152;48.728;9.256;2022-07-09T02:38:25;3.67;;;3.00;;
12177;SDS011;6152;48.728;9.256;2022-07-09T02:40:51;4.57;;;3.00;;
12177;SDS011;6152;48.728;9.256;2022-07-09T02:43:17;3.75;;;2.83;;
12177;SDS011;6152;48.728;9.256;2022-07-09T02:45:43;3.30;;;3.00;;
12177;SDS011;6152;48.728;9.256;2022-07-09T02:48:09;4.45;;;3.05;;
12177;SDS011;6152;48.728;9.256;2022-07-09T02:50:36;4.60;;;3.20;;
12177;SDS011;6152;48.728;9.256;2022-07-09T02:53:02;5.43;;;2.78;;
12177;SDS011;6152;48.728;9.256;2022-07-09T02:55:28;6.03;;;3.67;;
12177;SDS011;6152;48.728;9.256;2022-07-09T02:57:54;5.28;;;3.20;;
12177;SDS011;6152;48.728;9.256;2022-07-09T03:00:20;3.78;;;3.03;;
12177;SDS011;6152;48.728;9.256;2022-07-09T03:02:46;4.88;;;3.28;;
12177;SDS011;6152;48.728;9.256;2022-07-09T03:05:12;5.13;;;3.40;;
12177;SDS011;6152;48.728;9.256;2022-07-09T03:07:38;3.13;;;2.83;;
12177;SDS011;6152;48.728;9.256;2022-07-09T03:10:05;5.30;;;3.10;;
12177;SDS011;6152;48.728;9.256;2022-07-09T03:12:31;4.20;;;3.03;;
12177;SDS011;6152;48.728;9.256;2022-07-09T03:14:57;4.30;;;2.90;;
12177;SDS011;6152;48.728;9.256;2022-07-09T03:17:23;4.68;;;3.20;;
12177;SDS011;6152;48.728;9.256;2022-07-09T03:19:51;5.18;;;3.05;;
12177;SDS011;6152;48.728;9.256;2022-07-09T03:22:17;5.35;;;2.92;;
12177;SDS011;6152;48.728;9.256;2022-07-09T03:24:43;7.03;;;3.20;;
12177;SDS011;6152;48.728;9.256;2022-07-09T03:27:09;4.53;;;2.88;;
12177;SDS011;6152;48.728;9.256;2022-07-09T03:29:36;3.60;;;3.25;;
12177;SDS011;6152;48.728;9.256;2022-07-09T03:32:02;4.53;;;3.08;;
12177;SDS011;6152;48.728;9.256;2022-07-09T03:34:28;6.47;;;3.17;;
12177;SDS011;6152;48.728;9.256;2022-07-09T03:36:55;4.47;;;3.00;;
12177;SDS011;6152;48.728;9.256;2022-07-09T03:39:21;3.35;;;3.05;;
12177;SDS011;6152;48.728;9.256;2022-07-09T03:41:47;4.43;;;3.50;;
12177;SDS011;6152;48.728;9.256;2022-07-09T03:44:13;4.68;;;3.10;;
12177;SDS011;6152;48.728;9.256;2022-07-09T03:46:39;5.57;;;3.25;;
12177;SDS011;6152;48.728;9.256;2022-07-09T03:49:05;3.67;;;3.03;;
12177;SDS011;6152;48.728;9.256;2022-07-09T03:51:31;4.43;;;2.92;;
12177;SDS011;6152;48.728;9.256;2022-07-09T03:53:58;5.03;;;3.08;;
12177;SDS011;6152;48.728;9.256;2022-07-09T03:56:24;3.42;;;3.13;;
12177;SDS011;6152;48.728;9.256;2022-07-09T03:58:50;4.75;;;2.83;;
12177;SDS011;6152;48.728;9.256;2022-07-09T04:01:16;4.57;;;2.50;;
12177;SDS011;6152;48.728;9.256;2022-07-09T04:03:42;4.45;;;2.70;;
12177;SDS011;6152;48.728;9.256;2022-07-09T04:06:08;3.10;;;2.58;;
12177;SDS011;6152;48.728;9.256;2022-07-09T04:08:34;4.63;;;2.90;;
12177;SDS011;6152;48.728;9.256;2022-07-09T04:11:00;3.60;;;3.30;;
12177;SDS011;6152;48.728;9.256;2022-07-09T04:13:27;4.63;;;2.88;;
12177;SDS011;6152;48.728;9.256;2022-07-09T04:15:53;4.15;;;2.97;;
12177;SDS011;6152;48.728;9.256;2022-07-09T04:18:19;3.35;;;2.63;;
12177;SDS011;6152;48.728;9.256;2022-07-09T04:20:45;4.20;;;2.90;;
12177;SDS011;6152;48.728;9.256;2022-07-09T04:23:11;5.45;;;3.70;;
12177;SDS011;6152;48.728;9.256;2022-07-09T04:25:38;5.65;;;2.92;;
12177;SDS011;6152;48.728;9.256;2022-07-09T04:28:04;5.07;;;3.05;;
12177;SDS011;6152;48.728;9.256;2022-07-09T04:30:30;4.13;;;2.85;;
12177;SDS011;6152;48.728;9.256;2022-07-09T04:32:56;4.63;;;2.80;;
12177;SDS011;6152;48.728;9.256;2022-07-09T04:35:22;3.70;;;2.72;;
12177;SDS011;6152;48.728;9.256;2022-07-09T04:37:48;4.88;;;3.10;;
12177;SDS011;6152;48.728;9.256;2022-07-09T04:40:14;3.30;;;2.90;;
12177;SDS011;6152;48.728;9.256;2022-07-09T04:42:41;3.20;;;2.50;;
12177;SDS011;6152;48.728;9.256;2022-07-09T04:45:07;3.75;;;2.75;;
12177;SDS011;6152;48.728;9.256;2022-07-09T04:47:33;4.50;;;2.65;;
12177;SDS011;6152;48.728;9.256;2022-07-09T04:50:00;3.67;;;2.90;;
12177;SDS011;6152;48.728;9.256;2022-07-09T04:52:26;3.20;;;2.90;;
12177;SDS011;6152;48.728;9.256;2022-07-09T04:54:53;5.25;;;2.88;;
12177;SDS011;6152;48.728;9.256;2022-07-09T04:57:19;4.57;;;2.90;;
12177;SDS011;6152;48.728;9.256;2022-07-09T04:59:45;4.25;;;2.67;;
12177;SDS011;6152;48.728;9.256;2022-07-09T05:02:11;4.55;;;3.10;;
12177;SDS011;6152;48.728;9.256;2022-07-09T05:04:39;7.70;;;3.30;;
12177;SDS011;6152;48.728;9.256;2022-07-09T05:07:05;4.25;;;2.33;;
12177;SDS011;6152;48.728;9.256;2022-07-09T05:09:31;5.90;;;3.03;;
12177;SDS011;6152;48.728;9.256;2022-07-09T05:11:57;5.05;;;2.97;;
12177;SDS011;6152;48.728;9.256;2022-07-09T05:14:23;4.22;;;2.95;;
12177;SDS011;6152;48.728;9.256;2022-07-09T05:16:49;3.65;;;2.67;;
12177;SDS011;6152;48.728;9.256;2022-07-09T05:19:15;3.67;;;2.80;;
12177;SDS011;6152;48.728;9.256;2022-07-09T05:21:42;4.00;;;3.20;;
12177;SDS011;6152;48.728;9.256;2022-07-09T05:24:08;6.82;;;3.42;;
12177;SDS011;6152;48.728;9.256;2022-07-09T05:26:34;5.35;;;3.40;;
12177;SDS011;6152;48.728;9.256;2022-07-09T05:29:01;10.13;;;3.28;;
12177;SDS011;6152;48.728;9.256;2022-07-09T05:31:28;3.95;;;3.50;;
12177;SDS011;6152;48.728;9.256;2022-07-09T05:33:54;6.53;;;3.22;;
12177;SDS011;6152;48.728;9.256;2022-07-09T05:36:20;3.85;;;3.03;;
12177;SDS011;6152;48.728;9.256;2022-07-09T05:38:46;5.75;;;3.60;;
12177;SDS011;6152;48.728;9.256;2022-07-09T05:41:12;7.07;;;4.07;;
12177;SDS011;6152;48.728;9.256;2022-07-09T05:43:40;5.30;;;3.50;;
12177;SDS011;6152;48.728;9.256;2022-07-09T05:46:06;6.85;;;3.53;;
12177;SDS011;6152;48.728;9.256;2022-07-09T05:48:33;3.70;;;3.40;;
12177;SDS011;6152;48.728;9.256;2022-07-09T05:50:59;6.82;;;4.38;;
12177;SDS011;6152;48.728;9.256;2022-07-09T05:53:25;7.20;;;3.50;;
12177;SDS011;6152;48.728;9.256;2022-07-09T05:55:51;4.88;;;3.50;;
12177;SDS011;6152;48.728;9.256;2022-07-09T05:58:17;4.95;;;3.28;;
12177;SDS011;6152;48.728;9.256;2022-07-09T06:00:43;5.03;;;3.17;;
12177;SDS011;6152;48.728;9.256;2022-07-09T06:03:09;7.07;;;3.30;;
12177;SDS011;6152;48.728;9.256;2022-07-09T06:05:35;6.10;;;3.33;;
12177;SDS011;6152;48.728;9.256;2022-07-09T06:08:01;5.65;;;3.22;;
12177;SDS011;6152;48.728;9.256;2022-07-09T06:10:27;3.92;;;2.60;;
12177;SDS011;6152;48.728;9.256;2022-07-09T06:12:54;4.60;;;3.40;;
12177;SDS011;6152;48.728;9.256;2022-07-09T06:15:20;4.78;;;3.22;;
12177;SDS011;6152;48.728;9.256;2022-07-09T06:17:46;6.80;;;3.80;;
12177;SDS011;6152;48.728;9.256;2022-07-09T06:20:15;4.07;;;3.22;;
12177;SDS011;6152;48.728;9.256;2022-07-09T06:22:41;3.53;;;3.17;;
12177;SDS011;6152;48.728;9.256;2022-07-09T06:25:07;3.63;;;3.13;;
12177;SDS011;6152;48.728;9.256;2022-07-09T06:27:34;8.07;;;3.35;;
12177;SDS011;6152;48.728;9.256;2022-07-09T06:30:01;6.38;;;2.72;;
12177;SDS011;6152;48.728;9.256;2022-07-09T06:32:27;4.20;;;3.10;;
12177;SDS011;6152;48.728;9.256;2022-07-09T06:34:53;6.97;;;3.67;;
12177;SDS011;6152;48.728;9.256;2022-07-09T06:37:20;4.05;;;3.40;;
12177;SDS011;6152;48.728;9.256;2022-07-09T06:39:46;3.30;;;3.00;;
12177;SDS011;6152;48.728;9.256;2022-07-09T06:42:14;3.42;;;3.13;;
12177;SDS011;6152;48.728;9.256;2022-07-09T06:44:41;3.75;;;3.13;;
12177;SDS011;6152;48.728;9.256;2022-07-09T06:47:08;4.80;;;2.90;;
12177;SDS011;6152;48.728;9.256;2022-07-09T06:49:34;5.32;;;3.35;;
12177;SDS011;6152;48.728;9.256;2022-07-09T06:52:00;3.40;;;3.08;;
12177;SDS011;6152;48.728;9.256;2022-07-09T06:54:26;4.55;;;3.40;;
12177;SDS011;6152;48.728;9.256;2022-07-09T06:56:53;4.30;;;2.75;;
12177;SDS011;6152;48.728;9.256;2022-07-09T06:59:21;3.67;;;2.70;;
12177;SDS011;6152;48.728;9.256;2022-07-09T07:01:48;3.97;;;2.70;;
12177;SDS011;6152;48.728;9.256;2022-07-09T07:04:14;3.92;;;3.00;;
12177;SDS011;6152;48.728;9.256;2022-07-09T07:06:41;4.45;;;2.85;;
12177;SDS011;6152;48.728;9.256;2022-07-09T07:09:08;4.85;;;3.55;;
12177;SDS011;6152;48.728;9.256;2022-07-09T07:11:34;5.53;;;3.17;;
12177;SDS011;6152;48.728;9.256;2022-07-09T07:14:00;9.95;;;4.20;;
12177;SDS011;6152;48.728;9.256;2022-07-09T07:16:27;7.00;;;2.58;;
12177;SDS011;6152;48.728;9.256;2022-07-09T07:18:53;3.50;;;2.55;;
12177;SDS011;6152;48.728;9.256;2022-07-09T07:21:19;5.32;;;2.33;;
12177;SDS011;6152;48.728;9.256;2022-07-09T07:23:46;4.30;;;2.88;;
12177;SDS011;6152;48.728;9.256;2022-07-09T07:26:12;2.78;;;2.58;;
12177;SDS011;6152;48.728;9.256;2022-07-09T07:28:38;4.13;;;2.60;;
12177;SDS011;6152;48.728;9.256;2022-07-09T07:31:04;4.25;;;2.17;;
12177;SDS011;6152;48.728;9.256;2022-07-09T07:33:30;3.47;;;2.20;;
12177;SDS011;6152;48.728;9.256;2022-07-09T07:35:56;4.30;;;1.90;;
12177;SDS011;6152;48.728;9.256;2022-07-09T07:38:22;3.90;;;1.98;;
12177;SDS011;6152;48.728;9.256;2022-07-09T07:40:52;4.18;;;2.00;;
12177;SDS011;6152;48.728;9.256;2022-07-09T07:43:18;4.60;;;1.88;;
12177;SDS011;6152;48.728;9.256;2022-07-09T07:45:45;4.20;;;1.95;;
12177;SDS011;6152;48.728;9.256;2022-07-09T07:48:11;4.32;;;2.08;;
12177;SDS011;6152;48.728;9.256;2022-07-09T07:50:38;2.13;;;1.88;;
12177;SDS011;6152;48.728;9.256;2022-07-09T07:53:07;4.72;;;1.85;;
12177;SDS011;6152;48.728;9.256;2022-07-09T07:55:33;3.35;;;1.80;;
12177;SDS011;6152;48.728;9.256;2022-07-09T07:58:00;4.45;;;1.60;;
12177;SDS011;6152;48.728;9.256;2022-07-09T08:00:26;4.60;;;1.58;;
12177;SDS011;6152;48.728;9.256;2022-07-09T08:02:52;2.97;;;1.40;;
12177;SDS011;6152;48.728;9.256;2022-07-09T08:05:18;4.35;;;1.58;;
12177;SDS011;6152;48.728;9.256;2022-07-09T08:07:44;4.95;;;1.20;;
12177;SDS011;6152;48.728;9.256;2022-07-09T08:10:10;2.10;;;1.48;;
12177;SDS011;6152;48.728;9.256;2022-07-09T08:12:36;1.92;;;1.40;;
12177;SDS011;6152;48.728;9.256;2022-07-09T08:15:03;2.72;;;1.05;;
12177;SDS011;6152;48.728;9.256;2022-07-09T08:17:29;2.45;;;1.27;;
12177;SDS011;6152;48.728;9.256;2022-07-09T08:19:56;1.33;;;0.90;;
12177;SDS011;6152;48.728;9.256;2022-07-09T08:22:22;3.78;;;1.05;;
12177;SDS011;6152;48.728;9.256;2022-07-09T08:24:48;2.83;;;1.35;;
12177;SDS011;6152;48.728;9.256;2022-07-09T08:27:14;3.58;;;1.50;;
12177;SDS011;6152;48.728;9.256;2022-07-09T08:29:40;1.80;;;1.30;;
12177;SDS011;6152;48.728;9.256;2022-07-09T08:32:07;3.30;;;1.38;;
12177;SDS011;6152;48.728;9.256;2022-07-09T08:34:33;1.73;;;0.98;;
12177;SDS011;6152;48.728;9.256;2022-07-09T08:37:00;1.83;;;1.08;;
12177;SDS011;6152;48.728;9.256;2022-07-09T08:39:26;3.08;;;0.93;;
12177;SDS011;6152;48.728;9.256;2022-07-09T08:41:52;3.25;;;0.60;;
12177;SDS011;6152;48.728;9.256;2022-07-09T08:44:19;1.92;;;0.88;;
12177;SDS011;6152;48.728;9.256;2022-07-09T08:46:46;1.25;;;0.73;;
12177;SDS011;6152;48.728;9.256;2022-07-09T08:49:12;3.67;;;0.80;;
12177;SDS011;6152;48.728;9.256;2022-07-09T08:51:41;1.17;;;0.68;;
12177;SDS011;6152;48.728;9.256;2022-07-09T08:54:08;1.98;;;0.98;;
12177;SDS011;6152;48.728;9.256;2022-07-09T08:56:35;1.25;;;0.68;;
12177;SDS011;6152;48.728;9.256;2022-07-09T08:59:01;1.23;;;0.80;;
12177;SDS011;6152;48.728;9.256;2022-07-09T09:01:27;1.55;;;0.80;;
12177;SDS011;6152;48.728;9.256;2022-07-09T09:03:53;2.30;;;0.70;;
12177;SDS011;6152;48.728;9.256;2022-07-09T09:06:21;1.73;;;0.73;;
12177;SDS011;6152;48.728;9.256;2022-07-09T09:08:48;1.77;;;0.82;;
12177;SDS011;6152;48.728;9.256;2022-07-09T09:11:22;0.80;;;0.80;;
12177;SDS011;6152;48.728;9.256;2022-07-09T09:13:50;1.52;;;0.98;;
12177;SDS011;6152;48.728;9.256;2022-07-09T09:16:18;2.60;;;1.30;;
12177;SDS011;6152;48.728;9.256;2022-07-09T09:18:47;1.13;;;0.70;;
12177;SDS011;6152;48.728;9.256;2022-07-09T09:21:16;1.50;;;0.68;;
12177;SDS011;6152;48.728;9.256;2022-07-09T09:23:45;1.73;;;0.80;;
12177;SDS011;6152;48.728;9.256;2022-07-09T09:28:46;1.30;;;0.77;;
12177;SDS011;6152;48.728;9.256;2022-07-09T09:31:30;1.08;;;0.50;;
12177;SDS011;6152;48.728;9.256;2022-07-09T09:36:37;1.45;;;0.80;;
12177;SDS011;6152;48.728;9.256;2022-07-09T09:39:12;1.08;;;0.50;;
12177;SDS011;6152;48.728;9.256;2022-07-09T09:41:52;1.48;;;0.90;;
12177;SDS011;6152;48.728;9.256;2022-07-09T09:44:27;1.42;;;0.70;;
12177;SDS011;6152;48.728;9.256;2022-07-09T09:46:56;0.90;;;0.60;;
12177;SDS011;6152;48.728;9.256;2022-07-09T09:49:23;1.73;;;0.70;;
12177;SDS011;6152;48.728;9.256;2022-07-09T09:52:07;2.53;;;0.80;;
12177;SDS011;6152;48.728;9.256;2022-07-09T09:54:35;2.28;;;0.80;;
12177;SDS011;6152;48.728;9.256;2022-07-09T09:57:05;0.82;;;0.60;;
12177;SDS011;6152;48.728;9.256;2022-07-09T09:59:36;2.72;;;0.98;;
12177;SDS011;6152;48.728;9.256;2022-07-09T10:02:05;3.63;;;1.02;;
12177;SDS011;6152;48.728;9.256;2022-07-09T10:04:34;2.15;;;0.90;;
12177;SDS011;6152;48.728;9.256;2022-07-09T10:07:03;0.82;;;0.80;;
12177;SDS011;6152;48.728;9.256;2022-07-09T10:09:29;1.20;;;1.02;;
12177;SDS011;6152;48.728;9.256;2022-07-09T10:11:56;2.03;;;0.90;;
12177;SDS011;6152;48.728;9.256;2022-07-09T10:16:55;1.25;;;0.80;;
12177;SDS011;6152;48.728;9.256;2022-07-09T10:19:33;0.80;;;0.77;;
12177;SDS011;6152;48.728;9.256;2022-07-09T10:21:59;0.88;;;0.80;;
12177;SDS011;6152;48.728;9.256;2022-07-09T10:24:28;0.80;;;0.80;;
12177;SDS011;6152;48.728;9.256;2022-07-09T10:27:04;2.85;;;0.80;;
12177;SDS011;6152;48.728;9.256;2022-07-09T10:29:32;0.70;;;0.70;;
12177;SDS011;6152;48.728;9.256;2022-07-09T10:32:00;1.55;;;0.82;;
12177;SDS011;6152;48.728;9.256;2022-07-09T10:37:18;2.50;;;0.75;;
12177;SDS011;6152;48.728;9.256;2022-07-09T10:40:18;2.25;;;0.80;;
12177;SDS011;6152;48.728;9.256;2022-07-09T10:42:56;0.90;;;0.90;;
12177;SDS011;6152;48.728;9.256;2022-07-09T10:47:59;1.17;;;0.80;;
12177;SDS011;6152;48.728;9.256;2022-07-09T10:50:28;2.05;;;1.00;;
12177;SDS011;6152;48.728;9.256;2022-07-09T10:52:55;1.33;;;1.27;;
12177;SDS011;6152;48.728;9.256;2022-07-09T10:55:23;1.05;;;0.80;;
12177;SDS011;6152;48.728;9.256;2022-07-09T10:57:50;3.97;;;1.10;;
12177;SDS011;6152;48.728;9.256;2022-07-09T11:00:18;0.88;;;0.88;;
12177;SDS011;6152;48.728;9.256;2022-07-09T11:02:52;2.00;;;0.90;;
12177;SDS011;6152;48.728;9.256;2022-07-09T11:05:19;2.00;;;0.70;;
12177;SDS011;6152;48.728;9.256;2022-07-09T11:07:55;0.82;;;0.70;;
12177;SDS011;6152;48.728;9.256;2022-07-09T11:10:23;1.17;;;0.80;;
12177;SDS011;6152;48.728;9.256;2022-07-09T11:12:52;1.13;;;0.70;;
12177;SDS011;6152;48.728;9.256;2022-07-09T11:15:23;1.08;;;0.80;;
12177;SDS011;6152;48.728;9.256;2022-07-09T11:18:25;0.68;;;0.68;;
12177;SDS011;6152;48.728;9.256;2022-07-09T11:20:44;2.65;;;0.95;;
12177;SDS011;6152;48.728;9.256;2022-07-09T11:23:12;1.75;;;0.85;;
12177;SDS011;6152;48.728;9.256;2022-07-09T11:25:42;2.60;;;0.90;;
12177;SDS011;6152;48.728;9.256;2022-07-09T11:28:08;2.05;;;1.00;;
12177;SDS011;6152;48.728;9.256;2022-07-09T11:30:43;0.85;;;0.85;;
12177;SDS011;6152;48.728;9.256;2022-07-09T11:33:11;1.85;;;1.05;;
12177;SDS011;6152;48.728;9.256;2022-07-09T11:35:38;2.08;;;0.90;;
12177;SDS011;6152;48.728;9.256;2022-07-09T11:38:08;2.13;;;0.93;;
12177;SDS011;6152;48.728;9.256;2022-07-09T11:40:34;2.88;;;0.80;;
12177;SDS011;6152;48.728;9.256;2022-07-09T11:43:00;2.03;;;0.60;;
12177;SDS011;6152;48.728;9.256;2022-07-09T11:45:27;0.63;;;0.60;;
12177;SDS011;6152;48.728;9.256;2022-07-09T11:48:07;0.70;;;0.70;;
12177;SDS011;6152;48.728;9.256;2022-07-09T11:50:43;1.02;;;0.60;;
12177;SDS011;6152;48.728;9.256;2022-07-09T11:53:21;2.75;;;0.90;;
12177;SDS011;6152;48.728;9.256;2022-07-09T11:58:48;0.70;;;0.60;;
12177;SDS011;6152;48.728;9.256;2022-07-09T12:01:15;1.20;;;0.70;;
12177;SDS011;6152;48.728;9.256;2022-07-09T12:03:46;0.95;;;0.90;;
12177;SDS011;6152;48.728;9.256;2022-07-09T12:06:14;2.08;;;0.60;;
12177;SDS011;6152;48.728;9.256;2022-07-09T12:08:40;1.40;;;0.93;;
12177;SDS011;6152;48.728;9.256;2022-07-09T12:11:06;0.60;;;0.60;;
12177;SDS011;6152;48.728;9.256;2022-07-09T12:13:33;1.70;;;0.70;;
12177;SDS011;6152;48.728;9.256;2022-07-09T12:15:59;1.10;;;0.85;;
12177;SDS011;6152;48.728;9.256;2022-07-09T12:18:25;1.65;;;0.70;;
12177;SDS011;6152;48.728;9.256;2022-07-09T12:20:52;1.38;;;0.70;;
12177;SDS011;6152;48.728;9.256;2022-07-09T12:23:18;2.05;;;1.00;;
12177;SDS011;6152;48.728;9.256;2022-07-09T12:25:45;0.73;;;0.70;;
12177;SDS011;6152;48.728;9.256;2022-07-09T12:28:11;1.05;;;0.60;;
12177;SDS011;6152;48.728;9.256;2022-07-09T12:30:38;1.25;;;0.60;;
12177;SDS011;6152;48.728;9.256;2022-07-09T12:33:04;2.38;;;0.88;;
12177;SDS011;6152;48.728;9.256;2022-07-09T12:35:30;3.28;;;0.70;;
12177;SDS011;6152;48.728;9.256;2022-07-09T12:37:56;0.95;;;0.60;;
12177;SDS011;6152;48.728;9.256;2022-07-09T12:40:22;1.00;;;0.63;;
12177;SDS011;6152;48.728;9.256;2022-07-09T12:42:48;0.65;;;0.52;;
12177;SDS011;6152;48.728;9.256;2022-07-09T12:45:15;1.73;;;0.60;;
12177;SDS011;6152;48.728;9.256;2022-07-09T12:47:41;1.08;;;0.60;;
12177;SDS011;6152;48.728;9.256;2022-07-09T12:50:07;2.25;;;0.60;;
12177;SDS011;6152;48.728;9.256;2022-07-09T12:52:34;1.33;;;0.70;;
12177;SDS011;6152;48.728;9.256;2022-07-09T12:55:01;0.60;;;0.60;;
12177;SDS011;6152;48.728;9.256;2022-07-09T12:57:27;0.65;;;0.63;;
12177;SDS011;6152;48.728;9.256;2022-07-09T12:59:54;0.73;;;0.70;;
12177;SDS011;6152;48.728;9.256;2022-07-09T13:02:20;0.65;;;0.65;;
12177;SDS011;6152;48.728;9.256;2022-07-09T13:04:47;0.60;;;0.60;;
12177;SDS011;6152;48.728;9.256;2022-07-09T13:07:13;1.75;;;0.77;;
12177;SDS011;6152;48.728;9.256;2022-07-09T13:09:39;0.50;;;0.50;;
12177;SDS011;6152;48.728;9.256;2022-07-09T13:12:05;2.60;;;0.60;;
12177;SDS011;6152;48.728;9.256;2022-07-09T13:14:32;0.60;;;0.60;;
12177;SDS011;6152;48.728;9.256;2022-07-09T13:16:58;1.75;;;1.00;;
12177;SDS011;6152;48.728;9.256;2022-07-09T13:19:24;1.40;;;0.63;;
12177;SDS011;6152;48.728;9.256;2022-07-09T13:21:50;1.75;;;0.52;;
12177;SDS011;6152;48.728;9.256;2022-07-09T13:24:16;1.92;;;0.70;;
12177;SDS011;6152;48.728;9.256;2022-07-09T13:26:43;0.60;;;0.60;;
12177;SDS011;6152;48.728;9.256;2022-07-09T13:29:09;0.85;;;0.60;;
12177;SDS011;6152;48.728;9.256;2022-07-09T13:31:35;1.45;;;0.60;;
12177;SDS011;6152;48.728;9.256;2022-07-09T13:34:02;1.20;;;0.65;;
12177;SDS011;6152;48.728;9.256;2022-07-09T13:36:28;1.05;;;0.50;;
12177;SDS011;6152;48.728;9.256;2022-07-09T13:38:55;0.75;;;0.70;;
12177;SDS011;6152;48.728;9.256;2022-07-09T13:41:21;0.70;;;0.65;;
12177;SDS011;6152;48.728;9.256;2022-07-09T13:43:47;0.40;;;0.40;;
12177;SDS011;6152;48.728;9.256;2022-07-09T13:46:13;1.25;;;0.75;;
12177;SDS011;6152;48.728;9.256;2022-07-09T13:48:39;1.05;;;0.80;;
12177;SDS011;6152;48.728;9.256;2022-07-09T13:51:06;1.58;;;0.60;;
12177;SDS011;6152;48.728;9.256;2022-07-09T13:53:32;1.42;;;0.70;;
12177;SDS011;6152;48.728;9.256;2022-07-09T13:55:58;0.70;;;0.70;;
12177;SDS011;6152;48.728;9.256;2022-07-09T13:58:24;0.60;;;0.60;;
12177;SDS011;6152;48.728;9.256;2022-07-09T14:00:51;0.52;;;0.52;;
12177;SDS011;6152;48.728;9.256;2022-07-09T14:03:17;0.57;;;0.57;;
12177;SDS011;6152;48.728;9.256;2022-07-09T14:05:43;0.60;;;0.60;;
12177;SDS011;6152;48.728;9.256;2022-07-09T14:08:09;1.70;;;0.80;;
12177;SDS011;6152;48.728;9.256;2022-07-09T14:10:35;1.27;;;0.52;;
12177;SDS011;6152;48.728;9.256;2022-07-09T14:13:01;0.77;;;0.65;;
12177;SDS011;6152;48.728;9.256;2022-07-09T14:15:29;0.75;;;0.50;;
12177;SDS011;6152;48.728;9.256;2022-07-09T14:17:56;1.33;;;1.05;;
12177;SDS011;6152;48.728;9.256;2022-07-09T14:20:22;1.10;;;1.00;;
12177;SDS011;6152;48.728;9.256;2022-07-09T14:22:48;0.95;;;0.90;;
12177;SDS011;6152;48.728;9.256;2022-07-09T14:25:15;0.63;;;0.52;;
12177;SDS011;6152;48.728;9.256;2022-07-09T14:27:41;2.95;;;0.77;;
12177;SDS011;6152;48.728;9.256;2022-07-09T14:30:07;0.60;;;0.60;;
12177;SDS011;6152;48.728;9.256;2022-07-09T14:32:34;1.60;;;0.50;;
12177;SDS011;6152;48.728;9.256;2022-07-09T14:35:01;0.55;;;0.55;;
12177;SDS011;6152;48.728;9.256;2022-07-09T14:37:27;0.93;;;0.80;;
12177;SDS011;6152;48.728;9.256;2022-07-09T14:39:54;0.98;;;0.57;;
12177;SDS011;6152;48.728;9.256;2022-07-09T14:42:21;0.60;;;0.60;;
12177;SDS011;6152;48.728;9.256;2022-07-09T14:44:47;0.80;;;0.63;;
12177;SDS011;6152;48.728;9.256;2022-07-09T14:47:15;0.65;;;0.65;;
12177;SDS011;6152;48.728;9.256;2022-07-09T14:49:41;0.50;;;0.50;;
12177;SDS011;6152;48.728;9.256;2022-07-09T14:52:14;0.90;;;0.60;;
12177;SDS011;6152;48.728;9.256;2022-07-09T14:54:41;1.10;;;0.80;;
12177;SDS011;6152;48.728;9.256;2022-07-09T14:57:07;0.82;;;0.82;;
12177;SDS011;6152;48.728;9.256;2022-07-09T14:59:33;1.08;;;0.70;;
12177;SDS011;6152;48.728;9.256;2022-07-09T15:01:59;0.80;;;0.80;;
12177;SDS011;6152;48.728;9.256;2022-07-09T15:04:25;1.58;;;1.00;;
12177;SDS011;6152;48.728;9.256;2022-07-09T15:06:52;0.85;;;0.80;;
12177;SDS011;6152;48.728;9.256;2022-07-09T15:09:18;1.10;;;0.73;;
12177;SDS011;6152;48.728;9.256;2022-07-09T15:11:44;1.17;;;0.70;;
12177;SDS011;6152;48.728;9.256;2022-07-09T15:14:10;1.88;;;1.00;;
12177;SDS011;6152;48.728;9.256;2022-07-09T15:16:36;1.20;;;0.77;;
12177;SDS011;6152;48.728;9.256;2022-07-09T15:19:04;0.85;;;0.80;;